Time;durP1;ratioP1;P1;durP2;ratioP2;P2;SDS_P1;SDS_P2;PMS_P1;PMS_P2;Temp;Humidity;BMP_temperature;BMP_pressure;BME280_temperature;BME280_humidity;BME280_pressure;Samples;Min_cycle;Max_cycle;Signal;HPM_P1;HPM_P2
2022/09/11 00:00:10;;;;;;;5.40;3.80;;;;;;;24.17;51.08;94700.88;4999110;28;20033;-68
2022/09/11 00:02:35;;;;;;;5.93;3.95;;;;;;;25.06;51.17;94827.88;5002840;28;20041;-73
2022/09/11 00:05:00;;;;;;;5.07;3.88;;;;;;;24.97;51.24;94809.16;5017259;28;20378;-65
2022/09/11 00:07:26;;;;;;;6.78;4.53;;;;;;;24.98;50.99;94821.56;5001351;28;20034;-70
2022/09/11 00:09:52;;;;;;;5.93;4.47;;;;;;;24.88;51.56;94825.94;5003166;28;20549;-62
2022/09/11 00:12:17;;;;;;;5.40;4.03;;;;;;;24.76;51.51;94806.81;5003847;28;20018;-63
2022/09/11 00:14:43;;;;;;;5.93;4.30;;;;;;;24.68;51.53;94803.22;5005499;28;20080;-66
2022/09/11 00:17:08;;;;;;;5.53;4.05;;;;;;;24.74;51.19;94795.66;5002585;28;20038;-71
2022/09/11 00:19:35;;;;;;;5.80;4.45;;;;;;;24.83;51.47;94799.47;5007682;28;20053;-75
2022/09/11 00:22:00;;;;;;;5.03;4.03;;;;;;;24.26;50.87;94714.09;5006306;28;20164;-72
2022/09/11 00:24:26;;;;;;;7.22;4.55;;;;;;;24.80;51.28;94820.88;5022169;28;20025;-66
2022/09/11 00:26:51;;;;;;;7.65;4.50;;;;;;;24.17;51.28;94781.97;5007065;28;20147;-65
2022/09/11 00:29:17;;;;;;;5.53;4.32;;;;;;;24.34;51.21;94753.91;5008903;28;20055;-72
2022/09/11 00:31:42;;;;;;;6.63;4.30;;;;;;;24.45;51.75;94780.28;5009431;28;20045;-74
2022/09/11 00:34:08;;;;;;;5.68;4.35;;;;;;;24.27;51.66;94737.38;5016361;28;20045;-71
2022/09/11 00:36:40;;;;;;;6.03;4.80;;;;;;;24.78;51.42;94813.22;4993695;28;20030;-69
2022/09/11 00:39:05;;;;;;;6.70;4.30;;;;;;;24.10;51.96;94736.94;5007065;28;20812;-72
2022/09/11 00:41:35;;;;;;;6.25;4.40;;;;;;;23.82;52.47;94724.97;4987427;28;20041;-65
2022/09/11 00:44:04;;;;;;;5.72;4.70;;;;;;;24.68;51.69;94819.59;5009855;28;20433;-69
2022/09/11 00:46:43;;;;;;;5.95;4.80;;;;;;;24.64;52.42;94824.66;5005115;28;20072;-75
2022/09/11 00:49:16;;;;;;;6.75;4.60;;;;;;;24.13;52.03;94748.81;5010274;28;20045;-71
2022/09/11 00:51:42;;;;;;;6.60;4.72;;;;;;;24.35;52.18;94803.78;5015962;28;20040;-71
2022/09/11 00:54:08;;;;;;;6.57;4.38;;;;;;;24.29;52.79;94805.09;5002739;28;20021;-72
2022/09/11 00:56:34;;;;;;;6.43;4.38;;;;;;;24.21;51.98;94747.66;4999091;28;20078;-65
2022/09/11 00:59:00;;;;;;;8.07;4.32;;;;;;;24.30;52.11;94780.00;5010878;28;20134;-73
2022/09/11 01:01:25;;;;;;;5.75;4.18;;;;;;;24.58;52.27;94826.75;5008259;28;20117;-67
2022/09/11 01:03:51;;;;;;;5.18;4.18;;;;;;;24.53;52.50;94824.84;5013967;28;20096;-66
2022/09/11 01:06:16;;;;;;;7.20;4.13;;;;;;;23.95;52.14;94706.66;5002207;28;20041;-73
2022/09/11 01:08:42;;;;;;;4.97;4.47;;;;;;;24.64;52.34;94819.19;4986727;28;20041;-69
2022/09/11 01:11:38;;;;;;;4.63;4.05;;;;;;;24.56;52.60;94823.81;5006516;28;20136;-71
2022/09/11 01:14:16;;;;;;;5.65;4.40;;;;;;;24.59;52.61;94820.03;5002200;28;20092;-74
2022/09/11 01:16:48;;;;;;;6.25;4.43;;;;;;;24.53;52.39;94819.38;5014157;28;20041;-64
2022/09/11 01:19:29;;;;;;;7.53;4.60;;;;;;;24.56;52.44;94821.06;4998472;28;20052;-74
2022/09/11 01:21:59;;;;;;;5.20;3.92;;;;;;;24.50;52.59;94814.97;5000763;28;20038;-66
2022/09/11 01:25:14;;;;;;;6.93;4.47;;;;;;;23.86;52.76;94731.59;4990610;28;20044;-73
2022/09/11 01:27:53;;;;;;;6.15;4.13;;;;;;;24.32;52.99;94823.91;4936686;28;20054;-71
2022/09/11 01:30:23;;;;;;;6.70;4.18;;;;;;;24.40;52.67;94824.78;4939074;28;20073;-70
2022/09/11 01:32:58;;;;;;;6.27;4.37;;;;;;;24.38;52.67;94816.41;4967677;28;20048;-72
2022/09/11 01:35:48;;;;;;;6.07;4.20;;;;;;;24.38;52.72;94819.13;5005559;28;20541;-75
2022/09/11 01:38:19;;;;;;;6.03;4.25;;;;;;;24.34;52.32;94773.03;5007596;28;20052;-68
2022/09/11 01:40:50;;;;;;;6.90;3.97;;;;;;;24.01;52.45;94758.41;4990210;28;20038;-74
2022/09/11 01:43:40;;;;;;;5.60;3.67;;;;;;;24.05;52.70;94765.03;4988008;28;20042;-69
2022/09/11 01:46:06;;;;;;;;;;;;;;;24.44;51.95;94808.88;4995165;28;20042;-70
2022/09/11 01:48:43;;;;;;;6.25;4.10;;;;;;;23.94;52.28;94743.38;4995980;28;20391;-65
2022/09/11 01:51:16;;;;;;;5.75;3.90;;;;;;;24.50;51.90;94793.13;4980249;28;20465;-71
2022/09/11 01:53:42;;;;;;;5.07;3.90;;;;;;;24.42;52.01;94793.00;4969479;28;20692;-71
2022/09/11 01:56:15;;;;;;;6.18;3.72;;;;;;;24.41;51.99;94785.34;4984420;28;20044;-67
2022/09/11 01:58:40;;;;;;;3.33;3.00;;;;;;;24.42;51.71;94790.28;4997612;28;20068;-69
2022/09/11 02:01:10;;;;;;;4.85;2.95;;;;;;;24.14;51.54;94744.81;5004591;28;20510;-66
2022/09/11 02:03:38;;;;;;;4.73;3.63;;;;;;;24.32;51.94;94777.50;5015316;28;20684;-64
2022/09/11 02:06:06;;;;;;;3.88;3.15;;;;;;;24.31;51.93;94770.56;4982716;28;20514;-73
2022/09/11 02:08:47;;;;;;;4.13;3.05;;;;;;;24.46;51.10;94779.03;4998177;28;20208;-74
2022/09/11 02:11:13;;;;;;;3.53;3.22;;;;;;;24.49;51.12;94775.28;4994244;28;20038;-71
2022/09/11 02:13:39;;;;;;;5.45;3.05;;;;;;;24.36;51.92;94772.50;5003094;28;20104;-73
2022/09/11 02:16:08;;;;;;;4.70;3.38;;;;;;;23.81;51.59;94681.88;5020214;28;20172;-73
2022/09/11 02:19:03;;;;;;;4.93;2.93;;;;;;;23.72;51.54;94665.91;4986671;28;20033;-73
2022/09/11 02:21:29;;;;;;;5.72;2.88;;;;;;;24.39;51.88;94776.91;4987484;28;20056;-72
2022/09/11 02:23:55;;;;;;;4.90;3.03;;;;;;;23.90;51.75;94720.38;5002424;28;20568;-72
2022/09/11 02:26:23;;;;;;;4.40;3.10;;;;;;;24.09;51.89;94749.09;5001730;28;20038;-74
2022/09/11 02:28:48;;;;;;;4.55;2.90;;;;;;;24.24;51.97;94793.00;4983862;28;20029;-67
2022/09/11 02:31:14;;;;;;;5.38;3.33;;;;;;;24.34;51.94;94769.56;4999846;28;20045;-68
2022/09/11 02:33:40;;;;;;;5.10;3.60;;;;;;;23.88;52.02;94729.13;4982897;28;20056;-73
2022/09/11 02:36:45;;;;;;;4.68;3.30;;;;;;;24.21;52.13;94774.94;5014977;28;20026;-71
2022/09/11 02:39:21;;;;;;;4.97;3.25;;;;;;;24.13;52.99;94782.28;5009496;28;20046;-71
2022/09/11 02:42:08;;;;;;;3.70;3.05;;;;;;;24.12;52.82;94783.53;4983154;28;20068;-68
2022/09/11 02:45:08;;;;;;;4.60;3.25;;;;;;;24.11;52.81;94784.78;5003776;28;20039;-74
2022/09/11 02:47:52;;;;;;;3.90;3.13;;;;;;;24.15;52.99;94779.75;4998513;28;20046;-72
2022/09/11 02:50:49;;;;;;;4.93;3.63;;;;;;;24.03;52.99;94773.00;5009213;28;20033;-63
2022/09/11 02:53:41;;;;;;;4.28;3.55;;;;;;;24.05;53.03;94775.19;4998940;28;20108;-73
2022/09/11 02:56:22;;;;;;;6.28;3.50;;;;;;;23.50;53.36;94701.66;5001807;28;20435;-72
2022/09/11 02:58:51;;;;;;;4.55;3.38;;;;;;;24.08;53.17;94780.38;5000506;28;20053;-69
2022/09/11 03:01:17;;;;;;;4.80;3.40;;;;;;;23.92;53.28;94754.06;5003363;28;20530;-74
2022/09/11 03:03:44;;;;;;;7.22;3.72;;;;;;;24.11;53.36;94784.03;4989850;28;20049;-72
2022/09/11 03:06:12;;;;;;;5.38;3.72;;;;;;;24.05;53.46;94786.13;5004900;28;20057;-69
2022/09/11 03:08:39;;;;;;;4.65;4.00;;;;;;;23.82;53.66;94740.63;4986863;28;20069;-64
2022/09/11 03:11:04;;;;;;;5.70;4.18;;;;;;;23.55;53.65;94728.09;5004243;28;20038;-68
2022/09/11 03:13:30;;;;;;;6.15;3.63;;;;;;;24.02;53.85;94785.19;5004098;28;20045;-70
2022/09/11 03:15:55;;;;;;;5.07;3.80;;;;;;;23.77;53.66;94741.44;5006720;28;20022;-74
2022/09/11 03:18:22;;;;;;;5.63;3.50;;;;;;;23.44;54.29;94733.69;5009039;28;20037;-67
2022/09/11 03:20:47;;;;;;;4.40;3.90;;;;;;;23.94;53.98;94792.47;5001970;28;20041;-69
2022/09/11 03:23:13;;;;;;;5.35;3.72;;;;;;;23.58;54.07;94748.84;5010302;28;20053;-67
2022/09/11 03:25:39;;;;;;;4.75;3.30;;;;;;;23.17;53.91;94691.22;5003866;28;20514;-71
2022/09/11 03:28:04;;;;;;;6.07;3.85;;;;;;;23.73;53.97;94765.53;5015043;28;20107;-73
2022/09/11 03:30:31;;;;;;;6.95;3.90;;;;;;;23.89;54.58;94798.75;5007312;28;20026;-70
2022/09/11 03:32:57;;;;;;;4.20;3.60;;;;;;;23.69;54.31;94781.44;4996446;28;20042;-75
2022/09/11 03:35:24;;;;;;;5.03;3.63;;;;;;;23.70;54.53;94789.09;5003843;28;20048;-68
2022/09/11 03:37:49;;;;;;;5.88;3.88;;;;;;;23.75;54.47;94817.53;5005631;28;20064;-73
2022/09/11 03:40:15;;;;;;;6.63;4.15;;;;;;;23.74;55.06;94805.91;5003431;28;20519;-73
2022/09/11 03:42:40;;;;;;;6.28;4.30;;;;;;;23.15;54.80;94704.63;5003866;28;20431;-72
2022/09/11 03:45:06;;;;;;;6.22;3.95;;;;;;;23.44;54.67;94771.84;5011674;28;20025;-74
2022/09/11 03:47:32;;;;;;;5.25;3.60;;;;;;;23.71;55.11;94817.84;5017854;28;20075;-69
2022/09/11 03:49:57;;;;;;;4.50;3.72;;;;;;;23.05;54.46;94714.38;5008925;28;20033;-72
2022/09/11 03:52:23;;;;;;;6.60;3.92;;;;;;;23.66;55.34;94832.31;5016783;28;20067;-64
2022/09/11 03:54:48;;;;;;;7.50;3.80;;;;;;;23.49;55.03;94801.00;5008816;28;20017;-73
2022/09/11 03:57:14;;;;;;;5.80;3.90;;;;;;;23.68;55.43;94831.78;5014022;28;20029;-64
2022/09/11 03:59:39;;;;;;;7.47;4.00;;;;;;;23.55;54.79;94788.06;5003313;28;20046;-74
2022/09/11 04:02:05;;;;;;;5.32;4.18;;;;;;;23.54;55.11;94808.38;5003532;28;20415;-70
2022/09/11 04:04:31;;;;;;;5.38;4.10;;;;;;;23.30;55.06;94762.09;5002575;28;20045;-74
2022/09/11 04:06:57;;;;;;;4.95;3.65;;;;;;;23.45;55.42;94806.00;5016382;28;20054;-69
2022/09/11 04:09:23;;;;;;;4.40;3.50;;;;;;;23.60;54.94;94825.41;5003158;28;20030;-71
2022/09/11 04:11:48;;;;;;;4.88;3.88;;;;;;;23.21;55.36;94770.63;5016362;28;20499;-72
2022/09/11 04:14:14;;;;;;;6.00;4.05;;;;;;;23.41;55.67;94819.94;5002798;28;20104;-69
2022/09/11 04:16:40;;;;;;;5.78;3.80;;;;;;;23.26;55.38;94777.25;5016500;28;20037;-72
2022/09/11 04:19:05;;;;;;;5.95;3.83;;;;;;;22.88;55.49;94745.75;5003250;28;20057;-69
2022/09/11 04:21:32;;;;;;;6.10;3.70;;;;;;;23.42;55.45;94850.63;5016952;28;20029;-69
2022/09/11 04:23:59;;;;;;;6.97;4.32;;;;;;;23.39;55.53;94825.16;5002820;28;20514;-73
2022/09/11 04:26:25;;;;;;;6.47;4.03;;;;;;;23.17;55.97;94791.25;5008165;28;20038;-69
2022/09/11 04:28:51;;;;;;;6.10;4.30;;;;;;;23.31;55.91;94811.91;5005131;28;20045;-73
2022/09/11 04:31:17;;;;;;;6.13;4.15;;;;;;;23.05;55.57;94798.81;5002766;28;20037;-74
2022/09/11 04:33:43;;;;;;;6.90;4.45;;;;;;;23.08;55.39;94776.00;5014208;28;20117;-72
2022/09/11 04:36:11;;;;;;;5.40;4.10;;;;;;;23.46;55.55;94818.41;5013120;28;20041;-71
2022/09/11 04:38:38;;;;;;;5.55;4.13;;;;;;;23.10;55.37;94765.31;5020857;28;20434;-71
2022/09/11 04:41:05;;;;;;;5.82;3.90;;;;;;;23.49;55.25;94828.28;5002115;28;20076;-73
2022/09/11 04:43:30;;;;;;;6.05;3.92;;;;;;;23.17;55.21;94781.09;5003964;28;20037;-73
2022/09/11 04:46:15;;;;;;;5.72;3.90;;;;;;;23.58;55.14;94836.09;5010677;28;20048;-71
2022/09/11 04:48:58;;;;;;;6.45;4.00;;;;;;;23.25;54.74;94797.59;4991404;28;20755;-64
2022/09/11 04:51:25;;;;;;;5.55;4.05;;;;;;;23.53;54.89;94839.63;5002129;28;20046;-67
2022/09/11 04:53:51;;;;;;;6.95;4.05;;;;;;;23.42;54.47;94807.03;4988246;28;20038;-70
2022/09/11 04:56:17;;;;;;;5.63;4.10;;;;;;;23.37;54.59;94807.13;4993771;28;20477;-67
2022/09/11 04:59:18;;;;;;;7.25;4.53;;;;;;;23.15;54.36;94764.53;4995773;28;20034;-73
2022/09/11 05:01:54;;;;;;;6.18;4.00;;;;;;;23.57;55.30;94840.06;5003127;28;20532;-65
2022/09/11 05:04:19;;;;;;;5.85;4.32;;;;;;;23.23;55.33;94806.28;4991625;28;20124;-65
2022/09/11 05:06:47;;;;;;;5.82;4.15;;;;;;;23.22;54.90;94777.56;4980561;28;20117;-65
2022/09/11 05:09:13;;;;;;;6.45;4.13;;;;;;;23.75;54.03;94853.00;4989373;28;20401;-69
2022/09/11 05:11:39;;;;;;;5.20;4.25;;;;;;;23.55;54.31;94804.41;4987421;28;20144;-68
2022/09/11 05:14:05;;;;;;;5.15;4.53;;;;;;;23.55;54.35;94845.28;4983826;28;20034;-66
2022/09/11 05:16:33;;;;;;;6.80;4.65;;;;;;;23.70;54.21;94834.72;4983034;28;20112;-69
2022/09/11 05:18:58;;;;;;;5.55;4.32;;;;;;;23.28;54.66;94791.13;4997471;28;20097;-68
2022/09/11 05:21:24;;;;;;;6.72;4.75;;;;;;;23.65;54.86;94830.81;4984150;28;20022;-67
2022/09/11 05:23:52;;;;;;;8.43;4.65;;;;;;;23.65;54.79;94841.00;4996044;28;20108;-70
2022/09/11 05:26:21;;;;;;;6.95;4.88;;;;;;;23.28;54.25;94770.06;4981714;28;20061;-68
2022/09/11 05:28:47;;;;;;;5.75;4.78;;;;;;;23.31;54.50;94773.75;4982428;28;20042;-67
2022/09/11 05:31:15;;;;;;;10.10;5.28;;;;;;;23.68;54.38;94823.59;4980458;28;20073;-69
2022/09/11 05:33:40;;;;;;;6.97;5.15;;;;;;;23.74;54.40;94832.44;4993535;28;20030;-69
2022/09/11 05:36:06;;;;;;;6.88;4.82;;;;;;;23.26;54.33;94750.78;4983196;28;20026;-62
2022/09/11 05:38:33;;;;;;;7.18;4.85;;;;;;;23.42;54.58;94757.97;4982311;28;20084;-61
2022/09/11 05:40:58;;;;;;;6.22;5.07;;;;;;;23.77;54.87;94820.50;4980821;28;20048;-69
2022/09/11 05:43:25;;;;;;;6.45;5.72;;;;;;;23.04;54.76;94707.47;4981826;28;20031;-62
2022/09/11 05:45:56;;;;;;;8.65;6.05;;;;;;;23.28;54.58;94764.63;4984755;28;20026;-68
2022/09/11 05:48:22;;;;;;;8.20;5.32;;;;;;;23.52;54.36;94768.00;4982075;28;20037;-68
2022/09/11 05:50:55;;;;;;;5.78;4.80;;;;;;;23.73;54.76;94809.16;4967570;28;20041;-61
2022/09/11 05:53:21;;;;;;;8.52;6.10;;;;;;;23.63;54.68;94788.94;4998084;28;20034;-67
2022/09/11 05:55:47;;;;;;;6.72;5.63;;;;;;;23.78;54.94;94824.69;4983637;28;20030;-69
2022/09/11 05:58:13;;;;;;;6.05;5.45;;;;;;;23.88;55.13;94823.81;4995115;28;20045;-67
2022/09/11 06:00:39;;;;;;;7.72;5.97;;;;;;;23.77;55.11;94799.44;4976585;28;20022;-69
2022/09/11 06:03:06;;;;;;;7.70;5.80;;;;;;;23.75;54.87;94817.53;4989717;28;20129;-67
2022/09/11 06:05:32;;;;;;;8.80;6.03;;;;;;;23.83;54.99;94818.44;4981915;28;20038;-65
2022/09/11 06:07:58;;;;;;;7.50;6.18;;;;;;;23.30;55.30;94750.47;4996615;28;20053;-67
2022/09/11 06:10:24;;;;;;;6.68;6.00;;;;;;;23.35;54.95;94747.69;4995700;28;20085;-63
2022/09/11 06:12:49;;;;;;;7.15;6.40;;;;;;;23.68;55.37;94801.78;4999541;28;20030;-66
2022/09/11 06:15:15;;;;;;;8.40;6.75;;;;;;;23.58;55.02;94830.63;4983812;28;20012;-65
2022/09/11 06:17:40;;;;;;;9.98;7.25;;;;;;;23.71;55.35;94784.41;4981153;28;20593;-60
2022/09/11 06:20:06;;;;;;;7.78;6.90;;;;;;;23.61;55.81;94786.00;4988476;28;20062;-67
2022/09/11 06:22:35;;;;;;;8.43;7.28;;;;;;;23.96;54.90;94817.25;4986640;28;20349;-64
2022/09/11 06:25:00;;;;;;;8.40;7.50;;;;;;;24.08;55.15;94823.28;5000200;28;20060;-67
2022/09/11 06:27:27;;;;;;;8.50;7.60;;;;;;;24.19;54.80;94840.22;4994923;28;20033;-67
2022/09/11 06:29:54;;;;;;;8.50;7.60;;;;;;;24.38;54.60;94846.44;4998058;28;20030;-63
2022/09/11 06:32:19;;;;;;;8.00;7.20;;;;;;;23.64;54.43;94725.00;4996711;28;20574;-65
2022/09/11 06:34:45;;;;;;;7.82;7.00;;;;;;;24.47;54.05;94832.38;5000353;28;20037;-69
2022/09/11 06:37:11;;;;;;;8.20;7.40;;;;;;;24.48;54.18;94833.84;5002054;28;20046;-65
2022/09/11 06:39:37;;;;;;;8.32;7.43;;;;;;;24.46;53.81;94814.53;5001631;28;20117;-60
2022/09/11 06:42:02;;;;;;;9.07;7.38;;;;;;;24.69;53.40;94832.00;4999449;28;20557;-68
2022/09/11 06:44:28;;;;;;;8.13;7.32;;;;;;;24.27;53.21;94786.50;5003066;28;20185;-62
2022/09/11 06:46:53;;;;;;;11.35;7.93;;;;;;;24.49;53.04;94786.19;5003179;28;20045;-60
2022/09/11 06:49:18;;;;;;;7.80;6.93;;;;;;;24.82;52.71;94830.78;4995549;28;20041;-66
2022/09/11 06:51:44;;;;;;;7.97;7.10;;;;;;;24.80;52.43;94820.88;4995793;28;20040;-61
2022/09/11 06:54:10;;;;;;;8.10;7.30;;;;;;;25.04;52.56;94846.81;5000011;28;20010;-63
2022/09/11 06:56:35;;;;;;;8.30;7.18;;;;;;;24.96;51.75;94796.75;4995299;28;20035;-67
2022/09/11 06:59:01;;;;;;;8.52;7.13;;;;;;;25.32;51.60;94866.19;4994172;28;20081;-67
2022/09/11 07:01:27;;;;;;;8.18;7.20;;;;;;;24.88;51.56;94771.31;4977374;28;20042;-68
2022/09/11 07:03:53;;;;;;;8.68;7.70;;;;;;;25.21;51.88;94833.56;5012394;28;20056;-69
2022/09/11 07:06:24;;;;;;;8.68;6.93;;;;;;;25.47;51.38;94858.16;5005588;28;20032;-64
2022/09/11 07:08:55;;;;;;;11.15;6.80;;;;;;;25.48;51.55;94845.97;5006306;28;20041;-69
2022/09/11 07:11:21;;;;;;;7.72;6.93;;;;;;;25.44;51.21;94829.16;5006684;28;20040;-65
2022/09/11 07:13:46;;;;;;;9.82;7.00;;;;;;;25.52;51.24;94835.47;5008139;28;20132;-64
2022/09/11 07:16:12;;;;;;;7.25;6.45;;;;;;;25.30;50.71;94827.69;5012093;28;20365;-60
2022/09/11 07:18:41;;;;;;;7.10;6.32;;;;;;;25.46;50.29;94832.84;5016219;28;20029;-66
2022/09/11 07:21:11;;;;;;;7.75;6.95;;;;;;;25.63;49.46;94835.25;5021327;28;20033;-60
2022/09/11 07:23:37;;;;;;;;;;;;;;;25.88;49.51;94851.63;5017449;28;20041;-64
2022/09/11 07:26:07;;;;;;;8.07;6.57;;;;;;;25.52;49.39;94802.66;5011846;28;19990;-65
2022/09/11 07:28:33;;;;;;;7.18;6.47;;;;;;;25.67;48.64;94808.34;5013278;28;20046;-66
2022/09/11 07:31:10;;;;;;;9.80;6.70;;;;;;;25.56;48.40;94781.16;5015844;28;20532;-61
2022/09/11 07:33:41;;;;;;;7.43;6.47;;;;;;;26.09;48.51;94852.41;5013608;28;20033;-63
2022/09/11 07:36:11;;;;;;;7.13;6.32;;;;;;;25.37;47.74;94739.59;5021997;28;20046;-61
2022/09/11 07:38:39;;;;;;;6.82;6.13;;;;;;;25.99;47.61;94829.53;5018119;28;20041;-60
2022/09/11 07:41:07;;;;;;;7.35;6.22;;;;;;;25.80;47.22;94768.75;5004139;28;20060;-61
2022/09/11 07:43:33;;;;;;;6.97;6.25;;;;;;;25.66;47.05;94741.94;5022217;28;20056;-60
2022/09/11 07:45:59;;;;;;;7.88;7.10;;;;;;;26.39;47.21;94837.06;5023256;28;20528;-62
2022/09/11 07:48:24;;;;;;;7.55;6.47;;;;;;;26.46;46.81;94835.69;5013109;28;20025;-65
2022/09/11 07:50:57;;;;;;;10.63;6.28;;;;;;;26.48;46.43;94841.34;5019982;28;20057;-74
2022/09/11 07:53:24;;;;;;;6.97;6.38;;;;;;;26.41;46.15;94844.75;5022536;28;20033;-67
2022/09/11 07:55:50;;;;;;;7.72;6.93;;;;;;;26.40;46.07;94840.56;5026050;28;20030;-62
2022/09/11 07:58:16;;;;;;;8.98;6.95;;;;;;;26.60;45.82;94832.34;5015987;28;20137;-62
2022/09/11 08:00:41;;;;;;;7.75;6.57;;;;;;;26.70;45.68;94838.81;5019101;28;20045;-67
2022/09/11 08:03:07;;;;;;;8.10;7.30;;;;;;;26.66;45.95;94835.66;5017763;28;20129;-71
2022/09/11 08:05:32;;;;;;;10.13;7.25;;;;;;;26.43;45.57;94790.19;5022887;28;20038;-72
2022/09/11 08:07:58;;;;;;;8.10;7.30;;;;;;;26.57;45.85;94832.69;5020792;28;20034;-74
2022/09/11 08:10:23;;;;;;;8.50;6.90;;;;;;;26.53;45.77;94818.56;5022765;28;20158;-67
2022/09/11 08:12:49;;;;;;;9.43;7.20;;;;;;;26.47;46.00;94834.41;5020933;28;20013;-73
2022/09/11 08:15:15;;;;;;;9.48;7.32;;;;;;;26.46;45.90;94808.31;5020148;28;20022;-73
2022/09/11 08:17:40;;;;;;;9.50;7.28;;;;;;;26.56;45.44;94809.28;5007922;28;20040;-68
2022/09/11 08:20:06;;;;;;;8.43;7.53;;;;;;;26.41;45.55;94800.94;5018591;28;20036;-71
2022/09/11 08:22:32;;;;;;;8.35;7.53;;;;;;;26.33;45.77;94811.09;5007676;28;20057;-71
2022/09/11 08:24:57;;;;;;;7.90;7.10;;;;;;;26.07;46.43;94810.41;5014231;28;20499;-63
2022/09/11 08:27:23;;;;;;;8.77;7.88;;;;;;;25.90;46.72;94816.28;5012846;28;20045;-62
2022/09/11 08:29:48;;;;;;;8.52;7.65;;;;;;;25.68;46.49;94826.19;5010088;28;20049;-61
2022/09/11 08:32:14;;;;;;;8.55;7.75;;;;;;;26.03;46.20;94818.97;5003119;28;20042;-69
2022/09/11 08:34:39;;;;;;;8.93;7.95;;;;;;;26.07;45.92;94802.97;5014543;28;20045;-64
2022/09/11 08:37:05;;;;;;;8.57;7.78;;;;;;;26.06;45.83;94796.00;5002551;28;20069;-63
2022/09/11 08:39:30;;;;;;;8.43;7.53;;;;;;;26.16;45.59;94827.13;5014763;28;20148;-63
2022/09/11 08:42:02;;;;;;;7.72;6.80;;;;;;;26.12;45.99;94810.31;5014441;28;20042;-64
2022/09/11 08:44:29;;;;;;;8.52;7.43;;;;;;;26.03;46.30;94802.53;5012599;28;20056;-65
2022/09/11 08:47:01;;;;;;;9.43;7.68;;;;;;;26.12;46.02;94813.03;5000838;28;20046;-69
2022/09/11 08:50:16;;;;;;;9.60;7.88;;;;;;;25.47;46.84;94767.94;5016292;28;20034;-63
2022/09/11 08:52:42;;;;;;;8.85;7.88;;;;;;;25.54;46.44;94783.72;4973403;28;20053;-73
2022/09/11 08:55:12;;;;;;;8.93;7.88;;;;;;;25.63;46.93;94813.34;4988363;28;20034;-72
2022/09/11 08:58:00;;;;;;;7.93;7.22;;;;;;;25.44;47.04;94785.41;4995808;28;20060;-68
2022/09/11 09:00:30;;;;;;;8.68;7.88;;;;;;;25.49;47.18;94749.75;5015965;28;20106;-75
2022/09/11 09:03:11;;;;;;;8.80;7.78;;;;;;;25.87;46.92;94800.94;4979828;28;20042;-65
2022/09/11 09:05:44;;;;;;;8.70;7.50;;;;;;;25.85;46.54;94797.97;5002150;28;20084;-72
2022/09/11 09:08:34;;;;;;;8.25;7.45;;;;;;;25.68;46.50;94801.59;4981256;28;20036;-73
2022/09/11 09:11:20;;;;;;;8.93;7.80;;;;;;;25.64;46.25;94787.50;4985200;28;20080;-69
2022/09/11 09:14:15;;;;;;;9.07;8.18;;;;;;;25.59;46.24;94785.59;5001327;28;20042;-71
2022/09/11 09:16:52;;;;;;;8.50;7.53;;;;;;;25.63;46.32;94780.53;4974211;28;20034;-64
2022/09/11 09:19:24;;;;;;;8.43;7.60;;;;;;;25.37;46.01;94745.78;4983948;28;20042;-62
2022/09/11 09:22:11;;;;;;;7.93;7.13;;;;;;;25.47;46.22;94784.34;5000892;28;20026;-68
2022/09/11 09:24:59;;;;;;;8.93;8.02;;;;;;;25.59;46.11;94774.66;4995865;28;20030;-66
2022/09/11 09:27:35;;;;;;;8.98;8.07;;;;;;;25.43;46.17;94745.66;5003840;28;20033;-64
2022/09/11 09:30:05;;;;;;;8.18;7.38;;;;;;;25.71;45.94;94764.97;4969376;28;20250;-63
2022/09/11 09:32:35;;;;;;;8.50;7.68;;;;;;;25.53;45.51;94766.56;5000201;28;20133;-66
2022/09/11 09:35:03;;;;;;;8.25;7.45;;;;;;;25.12;45.48;94711.00;4983521;28;20073;-65
2022/09/11 09:37:28;;;;;;;8.70;7.80;;;;;;;25.27;45.28;94716.66;4980128;28;20054;-64
2022/09/11 09:39:54;;;;;;;8.77;7.88;;;;;;;25.62;45.61;94765.38;4995545;28;20045;-63
2022/09/11 09:42:41;;;;;;;8.85;7.95;;;;;;;25.30;45.50;94715.63;5001877;28;20021;-63
2022/09/11 09:45:41;;;;;;;8.55;7.65;;;;;;;25.64;44.61;94757.41;4970043;28;20784;-61
2022/09/11 09:48:08;;;;;;;9.15;7.50;;;;;;;25.44;44.75;94752.59;4999142;28;20073;-62
2022/09/11 09:50:37;;;;;;;8.18;7.38;;;;;;;25.51;44.32;94743.75;5001096;28;20041;-66
2022/09/11 09:53:10;;;;;;;8.47;7.57;;;;;;;25.61;44.17;94739.31;5000834;28;20166;-63
2022/09/11 09:55:38;;;;;;;9.23;7.97;;;;;;;25.54;44.41;94750.91;4973634;28;20030;-61
2022/09/11 09:58:03;;;;;;;8.05;7.25;;;;;;;25.28;44.11;94712.69;4979690;28;20625;-63
2022/09/11 10:00:31;;;;;;;8.40;7.60;;;;;;;25.60;44.03;94748.78;5001478;28;20047;-66
2022/09/11 10:02:57;;;;;;;9.07;8.18;;;;;;;25.33;44.02;94698.16;5007643;28;20053;-62
2022/09/11 10:05:41;;;;;;;8.90;8.00;;;;;;;25.63;44.25;94747.72;4990572;28;20041;-66
2022/09/11 10:08:30;;;;;;;9.05;6.78;;;;;;;25.33;43.82;94693.44;4995940;28;20614;-64
2022/09/11 10:11:15;;;;;;;8.93;7.57;;;;;;;25.74;44.63;94736.56;5009425;28;20038;-63
2022/09/11 10:13:42;;;;;;;7.45;6.68;;;;;;;25.73;43.72;94718.69;5008217;28;20136;-66
2022/09/11 10:16:22;;;;;;;8.40;7.18;;;;;;;25.67;43.90;94716.06;5004215;28;20092;-68
2022/09/11 10:18:47;;;;;;;8.27;7.47;;;;;;;25.35;43.55;94671.00;5009416;28;20029;-62
2022/09/11 10:21:32;;;;;;;8.48;7.55;;;;;;;25.82;43.80;94733.38;5005392;28;20037;-69
2022/09/11 10:23:58;;;;;;;8.45;7.50;;;;;;;25.67;43.84;94698.94;5005212;28;20537;-63
2022/09/11 10:26:30;;;;;;;8.48;6.90;;;;;;;25.36;43.55;94659.56;5004404;28;20038;-68
2022/09/11 10:29:04;;;;;;;8.45;7.30;;;;;;;25.87;43.45;94732.53;5019033;28;20506;-69
2022/09/11 10:31:29;;;;;;;8.27;7.10;;;;;;;25.68;44.32;94716.78;5019046;28;20049;-64
2022/09/11 10:33:56;;;;;;;8.40;7.18;;;;;;;24.81;43.63;94590.22;4987716;28;20084;-63
2022/09/11 10:36:23;;;;;;;8.05;7.25;;;;;;;25.64;43.85;94710.91;4991954;28;20039;-67
2022/09/11 10:38:49;;;;;;;8.02;7.13;;;;;;;25.79;42.94;94727.50;4999787;28;20097;-63
2022/09/11 10:41:18;;;;;;;7.60;6.90;;;;;;;25.51;43.65;94680.84;5018041;28;20141;-62
2022/09/11 10:44:01;;;;;;;7.22;6.45;;;;;;;25.37;44.26;94649.38;4997870;28;20052;-67
2022/09/11 10:46:33;;;;;;;7.72;6.30;;;;;;;25.92;44.39;94725.47;5019210;28;20041;-70
2022/09/11 10:49:01;;;;;;;7.20;6.50;;;;;;;26.00;43.77;94726.97;5004162;28;20049;-68
2022/09/11 10:51:28;;;;;;;8.00;6.35;;;;;;;25.68;43.95;94662.84;5022189;28;20030;-69
2022/09/11 10:53:58;;;;;;;6.82;6.13;;;;;;;26.08;43.79;94714.09;5016128;28;20105;-62
2022/09/11 10:56:25;;;;;;;6.40;5.75;;;;;;;26.09;44.46;94706.63;4989857;28;20034;-62
2022/09/11 10:58:51;;;;;;;6.93;6.05;;;;;;;26.10;43.75;94719.78;5012950;28;20033;-62
2022/09/11 11:01:17;;;;;;;6.93;5.82;;;;;;;26.04;44.41;94723.94;5021599;28;20418;-65
2022/09/11 11:03:42;;;;;;;6.55;5.95;;;;;;;25.99;43.97;94720.06;4996151;28;20046;-66
2022/09/11 11:06:10;;;;;;;6.90;6.20;;;;;;;26.10;43.16;94722.53;4984518;28;20446;-69
2022/09/11 11:08:58;;;;;;;8.32;6.28;;;;;;;25.79;43.39;94667.31;4985306;28;20034;-69
2022/09/11 11:11:44;;;;;;;6.70;6.03;;;;;;;26.04;43.31;94705.50;4974199;28;20061;-66
2022/09/11 11:14:36;;;;;;;7.80;7.00;;;;;;;25.99;43.25;94706.38;4984099;28;20073;-64
2022/09/11 11:17:35;;;;;;;8.13;6.97;;;;;;;25.94;43.61;94693.53;4984320;28;20538;-62
2022/09/11 11:20:20;;;;;;;8.68;6.95;;;;;;;26.07;44.33;94698.97;4976183;28;20046;-65
2022/09/11 11:23:12;;;;;;;7.93;6.28;;;;;;;26.12;43.48;94684.41;4988004;28;20047;-72
2022/09/11 11:25:40;;;;;;;6.90;6.20;;;;;;;26.16;43.58;94678.56;4991344;28;20042;-69
2022/09/11 11:28:10;;;;;;;7.20;6.53;;;;;;;26.18;43.81;94692.47;4991026;28;20046;-62
2022/09/11 11:30:51;;;;;;;6.60;6.00;;;;;;;25.90;43.78;94646.63;4986328;28;20073;-63
2022/09/11 11:33:25;;;;;;;7.43;6.00;;;;;;;26.14;43.39;94670.91;4969016;28;20045;-62
2022/09/11 11:36:01;;;;;;;7.75;6.45;;;;;;;26.17;43.15;94672.56;4988267;28;20089;-62
2022/09/11 11:39:00;;;;;;;7.93;5.82;;;;;;;25.85;43.05;94622.88;4975337;28;20104;-68
2022/09/11 11:41:40;;;;;;;7.57;6.80;;;;;;;26.24;43.24;94674.63;4983812;28;20046;-67
2022/09/11 11:44:09;;;;;;;7.03;6.35;;;;;;;26.23;42.93;94659.47;4989426;28;20043;-68
2022/09/11 11:46:37;;;;;;;7.97;6.30;;;;;;;25.90;42.92;94608.34;4971904;28;20392;-72
2022/09/11 11:49:22;;;;;;;7.22;6.53;;;;;;;25.52;43.28;94567.50;4989269;28;20042;-70